Terminal Aerodrome Forecast
Issued by NWS

Home | Current Version | Previous Version | Text Only | Print | Product List | Glossary Off
Versions: 1 2 3 4 5 6 7 8 9 10 11 12 13 14 15 16 17 18 19

000
FTUS42 KMHX 151700
TAFISO
TAF
KISO 151721Z 1518/1618 20015G20KT P6SM OVC250
     FM152200 24015G25KT P6SM SHRA VCTS SCT015 BKN025CB
     FM160100 28015KT P6SM -RA OVC015
     FM160400 33015G25KT P6SM VCSH OVC025
     FM160700 36015G25KT P6SM SKC
      AMD LTD TO CLD VIS AND WIND=

USA.gov is the U.S. government's official web portal to all federal, state and local government web resources and services.